Record high temperature 41.9°C Record low temperature 8.7°C Record high gust 19.2 km/h Record high average 8.1 km/h Record daily rain 41.5 mm Record low windchill 8.7°C Record high barometer 1017.6 hPa Record low barometer 950.5 hPa
Daily high pressure 1016.9 mb Daily low pressure 1013.2 mb Daily low windchill 10.0°C Daily high heat index 29.4°C Daily high gust speed 4.8 kmh W Daily high average speed 1.5 kmh NW
Weather Conditions in Pucioasa, Romania
LAST READING AT TIME: 19:20 PM DATE: 30 August 2014, time of next update: 07:30 pm
Current WeatherDry Current Temperature 28.4°C (83.1°F) (Heat Index 28.2°C ), Apparent temp 30.1°C
Maximum Temperature (since midnight)29.9°C at: 6:35 PM Minimum Temperature (since midnight)10.0°C at: 6:16 AM
Average windspeed (ten minute)0.0 kmh (0.0 kts) Wind Direction (ten minute)NNE (31°)
Heat Index 28.2°C Maximum Gust (last hour)0.0 kmh (0.0 kts) at: 6:13PM
Maximum Gust (since midnight)4.8 kmh (2.6 kts) at: 12:26 AM Maximum 1 minute average (since midnight)1.5 kmh (0.8 kts) at: 1:29 PM
Rainfall (last hour)0.0 mm Rainfall (since midnight)0.0 mm (0.00 in.)---
Rainfall This month 60.4 mm (2.38 in.) Rainfall To date this year 247.8 mm (9.76 in.)
Maximum rain per minute (last hour)0.0 mm/min Maximum rain per hour (last 6 hours)0.0 mm/hour
Yesterdays rainfall 0.0 mm DewPoint 14.2°C (Wet Bulb :19.8°C )
Humidity 42 %, Humidex 31.9°C Barometer corrected to msl1013.2 mb
Pressure change -0.4 mb (last hour) Trend (last hour)STEADY
Pressure change (last 12 hours)-2.2 mb Pressure change (last 6 hours)-2.9 mb

Status report of weather station: TFA-Nexus, online



Weather report/warning/Metars

Bucuresti Otopeni, Romania (LROP) 44-33N 026-06E 95M
Aug 30, 2014 - 12:00 PM EDT / 2014.08.30 1600 UTC
Wind: from the E (090 degrees) at 3 MPH (3 KT) (direction variable):0
Visibility: greater than 7 mile(s):0
Temperature: 77 F (25 C)
Dew Point: 48 F (9 C)
Relative Humidity: 36%
Pressure (altimeter): 30.06 in. Hg (1018 hPa)
ob: LROP 301600Z 09003KT 060V140 CAVOK 25/09 Q1018 NOSIG
cycle: 16
Arad, Romania (LRAR) 46-12N 021-24E 118M
Aug 30, 2014 - 12:00 PM EDT / 2014.08.30 1600 UTC
Wind: Calm:0
Visibility: greater than 7 mile(s):0
Temperature: 78 F (26 C)
Dew Point: 59 F (15 C)
Relative Humidity: 50%
Pressure (altimeter): 30.03 in. Hg (1017 hPa)
ob: LRAR 301600Z 00000KT CAVOK 26/15 Q1017
cycle: 16
Baia Mare, Romania (LRBM) 47-40N 023-35E 194M
Aug 30, 2014 - 12:00 PM EDT / 2014.08.30 1600 UTC
Wind: Variable at 2 MPH (2 KT):0
Visibility: greater than 7 mile(s):0
Temperature: 75 F (24 C)
Dew Point: 48 F (9 C)
Relative Humidity: 38%
Pressure (altimeter): 30.06 in. Hg (1018 hPa)
ob: LRBM 301600Z VRB02KT CAVOK 24/09 Q1018
cycle: 16
Bacau, Romania (LRBC) 46-35N 026-58E 190M
Aug 30, 2014 - 12:00 PM EDT / 2014.08.30 1600 UTC
Wind: from the SSE (160 degrees) at 12 MPH (10 KT):0
Visibility: greater than 7 mile(s):0
Temperature: 75 F (24 C)
Dew Point: 48 F (9 C)
Relative Humidity: 38%
Pressure (altimeter): 30.06 in. Hg (1018 hPa)
ob: LRBC 301600Z 16010KT CAVOK 24/09 Q1018
cycle: 16
Kogalniceanu, Romania (LRCK) 44-20N 028-26E 102M
Aug 30, 2014 - 12:00 PM EDT / 2014.08.30 1600 UTC
Wind: from the E (100 degrees) at 8 MPH (7 KT) (direction variable):0
Visibility: greater than 7 mile(s):0
Sky conditions: mostly clear
Temperature: 75 F (24 C)
Dew Point: 55 F (13 C)
Relative Humidity: 50%
Pressure (altimeter): 30.09 in. Hg (1019 hPa)
ob: LRCK 301600Z 10007KT 060V130 9999 FEW045 24/13 Q1019 NOSIG
cycle: 16
Sibiu, Romania (LRSB) 45-48N 024-09E 444M
Aug 30, 2014 - 12:00 PM EDT / 2014.08.30 1600 UTC
Wind: from the SSE (160 degrees) at 5 MPH (4 KT):0
Visibility: greater than 7 mile(s):0
Sky conditions: mostly clear
Temperature: 73 F (23 C)
Dew Point: 50 F (10 C)
Relative Humidity: 43%
Pressure (altimeter): 30.09 in. Hg (1019 hPa)
ob: LRSB 301600Z 16004KT 9999 FEW050 23/10 Q1019
cycle: 16
Tirgu Mures, Romania (LRTM) 46-32N 024-32E 309M
Aug 30, 2014 - 12:00 PM EDT / 2014.08.30 1600 UTC
Wind: from the N (350 degrees) at 5 MPH (4 KT) (direction variable):0
Visibility: greater than 7 mile(s):0
Temperature: 73 F (23 C)
Dew Point: 55 F (13 C)
Relative Humidity: 53%
Pressure (altimeter): 30.06 in. Hg (1018 hPa)
ob: LRTM 301600Z 35004KT 320V020 CAVOK 23/13 Q1018
cycle: 16
Craiova, Romania (LRCV) 44-14N 023-52E 195M
Aug 30, 2014 - 12:00 PM EDT / 2014.08.30 1600 UTC
Wind: from the NE (050 degrees) at 7 MPH (6 KT):0
Visibility: greater than 7 mile(s):0
Temperature: 77 F (25 C)
Dew Point: 48 F (9 C)
Relative Humidity: 36%
Pressure (altimeter): 30.03 in. Hg (1017 hPa)
ob: LRCV 301600Z 05006KT CAVOK 25/09 Q1017
cycle: 16
BALTIMORE-WASHINGTON INTERNATIONAL , MD, United States (KBWI) 39-10N 076-41W 59M
Aug 30, 2014 - 11:54 AM EDT / 2014.08.30 1554 UTC
Wind: from the SSE (160 degrees) at 8 MPH (7 KT):0
Visibility: 10 mile(s):0
Sky conditions: overcast
Temperature: 75.9 F (24.4 C)
Dew Point: 64.0 F (17.8 C)
Relative Humidity: 66%
Pressure (altimeter): 30.23 in. Hg (1023 hPa)
ob: KBWI 301554Z 16007KT 10SM FEW024 OVC032 24/18 A3023 RMK AO2 SLP235 T02440178
cycle: 16